Time;durP1;ratioP1;P1;durP2;ratioP2;P2;SDS_P1;SDS_P2;PMS_P1;PMS_P2;Temp;Humidity;BMP_temperature;BMP_pressure;BME280_temperature;BME280_humidity;BME280_pressure;Samples;Min_cycle;Max_cycle;Signal;HPM_P1;HPM_P2
2022/02/09 00:03:57;;;;;;;0.30;0.30;;;2.20;99.90;;;;;;5033930;28;20684;-71
2022/02/09 00:09:08;;;;;;;0.30;0.30;;;2.30;99.90;;;;;;5033748;28;20170;-70
2022/02/09 00:12:25;;;;;;;0.40;0.40;;;2.20;99.90;;;;;;5033746;28;20510;-70
2022/02/09 00:17:12;;;;;;;0.37;0.37;;;2.30;99.90;;;;;;5033514;28;20256;-71
2022/02/09 00:44:15;;;;;;;0.30;0.30;;;2.20;99.90;;;;;;5033094;28;20199;-71
2022/02/09 01:57:10;;;;;;;0.40;0.40;;;2.40;99.90;;;;;;5036443;28;20250;-71
2022/02/09 01:59:37;;;;;;;0.30;0.30;;;2.50;99.90;;;;;;5036226;28;20185;-70
2022/02/09 02:02:05;;;;;;;0.30;0.30;;;2.50;99.90;;;;;;5036236;28;20168;-71
2022/02/09 02:04:30;;;;;;;0.35;0.35;;;2.50;99.90;;;;;;5036198;28;20733;-70
2022/02/09 02:06:56;;;;;;;0.30;0.30;;;2.40;99.90;;;;;;5036197;28;20250;-71
2022/02/09 02:09:25;;;;;;;0.40;0.40;;;2.40;99.90;;;;;;5036095;28;20176;-71
2022/02/09 02:12:03;;;;;;;0.30;0.30;;;2.40;99.90;;;;;;5036020;28;20246;-69
2022/02/09 02:14:36;;;;;;;0.40;0.40;;;2.50;99.90;;;;;;5036107;28;20179;-69
2022/02/09 02:17:13;;;;;;;0.40;0.40;;;2.30;99.90;;;;;;5036047;28;20179;-70
2022/02/09 02:19:49;;;;;;;0.30;0.30;;;2.30;99.90;;;;;;5035776;28;20167;-70
2022/02/09 02:22:37;;;;;;;0.30;0.30;;;2.30;99.90;;;;;;5035800;28;20167;-71
2022/02/09 02:28:19;;;;;;;0.30;0.30;;;2.30;99.90;;;;;;5036184;28;20319;-70
2022/02/09 02:31:24;;;;;;;0.40;0.40;;;2.30;99.90;;;;;;5035481;28;20174;-71
2022/02/09 02:34:06;;;;;;;0.30;0.30;;;2.40;99.90;;;;;;5035089;28;20693;-70
2022/02/09 03:14:12;;;;;;;0.30;0.30;;;2.50;99.90;;;;;;5035087;28;20226;-70
2022/02/09 03:16:43;;;;;;;0.30;0.30;;;2.50;99.90;;;;;;5035209;28;20294;-71
2022/02/09 03:24:08;;;;;;;0.40;0.40;;;2.30;99.90;;;;;;5034797;28;20242;-71
2022/02/09 03:43:21;;;;;;;0.32;0.32;;;2.40;99.90;;;;;;5034274;28;20691;-70
2022/02/09 03:46:48;;;;;;;0.30;0.30;;;2.20;99.90;;;;;;5034205;28;20193;-70
2022/02/09 03:58:35;;;;;;;0.30;0.30;;;2.30;99.90;;;;;;5034042;28;20182;-71
2022/02/09 04:01:01;;;;;;;0.30;0.30;;;2.20;99.90;;;;;;5034120;28;20172;-71
2022/02/09 04:03:27;;;;;;;0.30;0.30;;;2.30;99.90;;;;;;5034005;28;20279;-71
2022/02/09 04:05:52;;;;;;;0.30;0.30;;;2.30;99.90;;;;;;5033847;28;20630;-70
2022/02/09 04:08:25;;;;;;;0.30;0.30;;;2.30;99.90;;;;;;5033689;28;20226;-71
2022/02/09 04:11:02;;;;;;;0.30;0.30;;;2.30;99.90;;;;;;5034094;28;20532;-71
2022/02/09 04:37:15;;;;;;;0.30;0.30;;;2.20;99.90;;;;;;5033479;28;20187;-70
2022/02/09 04:39:51;;;;;;;0.35;0.35;;;2.20;99.90;;;;;;5033375;28;20265;-71
2022/02/09 04:52:39;;;;;;;0.40;0.40;;;2.20;99.90;;;;;;5033424;28;20179;-71
2022/02/09 04:58:03;;;;;;;0.30;0.30;;;2.30;99.90;;;;;;5033299;28;20542;-71
2022/02/09 05:23:03;;;;;;;0.30;0.30;;;2.20;99.90;;;;;;5033302;28;20251;-70
2022/02/09 05:30:18;;;;;;;0.38;0.38;;;2.30;99.90;;;;;;5018839;28;20180;-71
2022/02/09 05:32:46;;;;;;;0.30;0.30;;;2.30;99.90;;;;;;5036797;28;20242;-71
2022/02/09 05:35:12;;;;;;;0.40;0.40;;;2.30;99.90;;;;;;5036795;28;20286;-70
2022/02/09 05:37:37;;;;;;;0.30;0.30;;;2.20;99.90;;;;;;5036600;28;20254;-70
2022/02/09 05:40:04;;;;;;;0.40;0.40;;;2.20;99.90;;;;;;5036361;28;20591;-71
2022/02/09 05:42:31;;;;;;;0.30;0.30;;;2.30;99.90;;;;;;5036528;28;20173;-71
2022/02/09 05:44:57;;;;;;;0.30;0.30;;;2.20;99.90;;;;;;5035257;28;20196;-71
2022/02/09 05:50:18;;;;;;;0.30;0.30;;;2.20;99.90;;;;;;5036242;28;20421;-71
2022/02/09 05:58:07;;;;;;;0.30;0.30;;;2.20;99.90;;;;;;5036310;28;20171;-71
2022/02/09 06:00:32;;;;;;;0.30;0.30;;;2.30;99.90;;;;;;5035962;28;20171;-71
2022/02/09 06:03:01;;;;;;;0.30;0.30;;;2.30;99.90;;;;;;5036345;28;20207;-71
2022/02/09 06:05:27;;;;;;;0.30;0.30;;;2.30;99.90;;;;;;5034812;28;20229;-71
2022/02/09 06:07:53;;;;;;;0.30;0.30;;;2.30;99.90;;;;;;5036140;28;20173;-70
2022/02/09 06:10:24;;;;;;;0.38;0.38;;;2.40;99.90;;;;;;5036050;28;20252;-70
2022/02/09 06:12:56;;;;;;;0.30;0.30;;;2.30;99.90;;;;;;5036225;28;20230;-71
2022/02/09 06:21:00;;;;;;;0.30;0.30;;;2.40;99.90;;;;;;5036356;28;20183;-71
2022/02/09 06:23:26;;;;;;;0.30;0.30;;;2.40;99.90;;;;;;5036434;28;20657;-71
2022/02/09 06:25:52;;;;;;;0.30;0.30;;;2.40;99.90;;;;;;5035777;28;20663;-70
2022/02/09 06:28:17;;;;;;;0.30;0.30;;;2.40;99.90;;;;;;5035633;28;20226;-71
2022/02/09 06:30:43;;;;;;;0.30;0.30;;;2.40;99.90;;;;;;5035669;28;20250;-70
2022/02/09 06:33:09;;;;;;;0.30;0.30;;;2.40;99.90;;;;;;5035435;28;20618;-71
2022/02/09 06:35:34;;;;;;;0.40;0.40;;;2.40;99.90;;;;;;5035449;28;20227;-70
2022/02/09 06:38:01;;;;;;;0.30;0.30;;;2.40;99.90;;;;;;5034561;28;20735;-71
2022/02/09 06:40:28;;;;;;;0.30;0.30;;;2.40;99.90;;;;;;5034014;28;20596;-70
2022/02/09 06:42:54;;;;;;;0.35;0.35;;;2.40;99.90;;;;;;5035215;28;20665;-70
2022/02/09 06:45:27;;;;;;;0.40;0.40;;;2.30;99.90;;;;;;5035288;28;20196;-70
2022/02/09 06:47:53;;;;;;;0.30;0.30;;;2.40;99.90;;;;;;5035340;28;20779;-74
2022/02/09 06:50:26;;;;;;;0.30;0.30;;;2.40;99.90;;;;;;5032774;28;20264;-73
2022/02/09 06:53:31;;;;;;;0.30;0.30;;;2.40;99.90;;;;;;5035689;28;20173;-72
2022/02/09 06:55:49;;;;;;;0.30;0.30;;;2.50;99.90;;;;;;5031469;28;20670;-76
2022/02/09 06:58:22;;;;;;;0.40;0.40;;;2.50;99.90;;;;;;5035692;28;20222;-74
2022/02/09 07:00:47;;;;;;;0.30;0.30;;;2.50;99.90;;;;;;5035480;28;20228;-72
2022/02/09 07:03:13;;;;;;;0.37;0.37;;;2.60;99.90;;;;;;5032236;28;20204;-74
2022/02/09 07:05:40;;;;;;;0.30;0.30;;;2.70;99.90;;;;;;5033684;28;20957;-75
2022/02/09 07:08:06;;;;;;;0.40;0.40;;;2.80;99.90;;;;;;5032987;28;20407;-71
2022/02/09 07:10:32;;;;;;;0.30;0.30;;;2.70;99.90;;;;;;5035211;28;20239;-72
2022/02/09 07:12:57;;;;;;;0.30;0.30;;;2.70;99.90;;;;;;5035458;28;20176;-70
2022/02/09 07:15:30;;;;;;;0.30;0.30;;;2.80;99.90;;;;;;5035223;28;20669;-75
2022/02/09 07:17:58;;;;;;;0.40;0.40;;;2.90;99.90;;;;;;5034607;28;20173;-72
2022/02/09 07:20:29;;;;;;;0.30;0.30;;;2.90;99.90;;;;;;5034526;28;20177;-71
2022/02/09 07:22:58;;;;;;;0.38;0.38;;;3.00;99.90;;;;;;5033690;28;20205;-79
2022/02/09 07:25:32;;;;;;;0.40;0.40;;;3.00;99.90;;;;;;5033491;28;20201;-72
2022/02/09 07:28:02;;;;;;;0.32;0.32;;;3.10;99.90;;;;;;5034862;28;20161;-70
2022/02/09 07:30:28;;;;;;;0.30;0.30;;;3.10;99.90;;;;;;5033144;28;20663;-69
2022/02/09 07:32:59;;;;;;;0.30;0.30;;;3.20;99.90;;;;;;5034279;28;20202;-71
2022/02/09 07:35:25;;;;;;;0.35;0.35;;;3.20;99.90;;;;;;5033339;28;20447;-70
2022/02/09 07:37:51;;;;;;;0.30;0.30;;;3.20;99.90;;;;;;5034409;28;20234;-70
2022/02/09 07:40:19;;;;;;;0.30;0.30;;;3.20;99.90;;;;;;5033024;28;20173;-71
2022/02/09 07:42:50;;;;;;;0.30;0.30;;;3.20;99.90;;;;;;5034943;28;20451;-71
2022/02/09 07:46:28;;;;;;;0.30;0.30;;;3.20;99.90;;;;;;5034350;28;20204;-71
2022/02/09 07:48:37;;;;;;;0.30;0.30;;;3.30;99.90;;;;;;5024367;28;20676;-71
2022/02/09 07:54:00;;;;;;;0.30;0.30;;;3.20;99.90;;;;;;5034507;28;20181;-70
2022/02/09 07:56:28;;;;;;;0.40;0.40;;;3.50;99.90;;;;;;5033842;28;20331;-71
2022/02/09 07:58:54;;;;;;;0.30;0.30;;;4.10;99.90;;;;;;5032525;28;20189;-72
2022/02/09 08:01:20;;;;;;;0.33;0.33;;;5.20;99.90;;;;;;5033903;28;20166;-70
2022/02/09 08:03:46;;;;;;;0.30;0.30;;;6.60;99.90;;;;;;5033866;28;20194;-70
2022/02/09 08:06:12;;;;;;;0.30;0.30;;;8.10;99.90;;;;;;5032612;28;20609;-71
2022/02/09 08:08:41;;;;;;;0.30;0.30;;;9.50;99.90;;;;;;5033751;28;20581;-71
2022/02/09 08:30:00;;;;;;;0.40;0.40;;;12.70;71.90;;;;;;5032809;28;20173;-71
2022/02/09 08:34:52;;;;;;;0.30;0.30;;;14.00;67.80;;;;;;5033623;28;20194;-74
2022/02/09 08:37:18;;;;;;;0.30;0.30;;;14.90;63.70;;;;;;5032282;28;20671;-75
2022/02/09 08:39:44;;;;;;;0.30;0.30;;;15.90;60.10;;;;;;5032352;28;20411;-74
2022/02/09 08:42:09;;;;;;;0.30;0.30;;;16.50;57.10;;;;;;5034019;28;20174;-72
2022/02/09 08:44:35;;;;;;;0.30;0.30;;;16.90;56.30;;;;;;5031206;28;20206;-71
2022/02/09 08:47:01;;;;;;;0.30;0.30;;;17.60;54.10;;;;;;5031612;28;20163;-72
2022/02/09 08:49:28;;;;;;;0.30;0.30;;;17.60;52.90;;;;;;5033079;28;20488;-72
2022/02/09 08:51:58;;;;;;;0.40;0.40;;;18.20;52.80;;;;;;5033667;28;20171;-71
2022/02/09 08:54:24;;;;;;;0.30;0.30;;;18.00;51.40;;;;;;5033581;28;20427;-71
2022/02/09 08:56:53;;;;;;;0.30;0.30;;;17.80;50.80;;;;;;5033283;28;20421;-72
2022/02/09 08:59:23;;;;;;;0.30;0.30;;;17.50;50.60;;;;;;5033746;28;20405;-71
2022/02/09 09:01:55;;;;;;;0.30;0.30;;;17.30;50.80;;;;;;5033786;28;20397;-72
2022/02/09 09:04:25;;;;;;;0.40;0.40;;;17.50;51.00;;;;;;5035423;28;20454;-72
2022/02/09 09:06:55;;;;;;;0.30;0.30;;;18.00;50.40;;;;;;5037668;28;20393;-71
2022/02/09 09:09:29;;;;;;;0.30;0.30;;;18.20;49.30;;;;;;5037177;28;20842;-71
2022/02/09 09:15:07;;;;;;;0.30;0.30;;;18.20;49.30;;;;;;5037337;28;20473;-70
2022/02/09 10:31:01;;;;;;;0.30;0.30;;;23.00;39.10;;;;;;5035890;28;20415;-70
2022/02/09 10:33:56;;;;;;;0.30;0.30;;;22.30;39.70;;;;;;5035701;28;20551;-71
2022/02/09 10:36:22;;;;;;;0.30;0.30;;;22.60;39.50;;;;;;5035540;28;20433;-71
2022/02/09 10:38:50;;;;;;;0.30;0.30;;;23.20;38.90;;;;;;5034217;28;20413;-71
2022/02/09 10:41:29;;;;;;;0.30;0.30;;;23.50;38.30;;;;;;5035708;28;20900;-70
2022/02/09 10:44:06;;;;;;;0.30;0.30;;;22.90;38.20;;;;;;5035557;28;20521;-71
2022/02/09 10:46:44;;;;;;;0.30;0.30;;;23.20;36.40;;;;;;5035251;28;20432;-70
2022/02/09 10:49:10;;;;;;;0.30;0.30;;;23.10;37.60;;;;;;5035393;28;20400;-70
2022/02/09 10:54:06;;;;;;;0.30;0.30;;;23.00;36.90;;;;;;5035280;28;20168;-71
2022/02/09 10:56:33;;;;;;;0.30;0.30;;;23.00;37.20;;;;;;5035056;28;20439;-70
2022/02/09 10:59:04;;;;;;;0.30;0.30;;;23.10;36.30;;;;;;5033761;28;20444;-71
2022/02/09 11:01:31;;;;;;;0.30;0.30;;;23.00;36.70;;;;;;5035399;28;20436;-71
2022/02/09 11:03:58;;;;;;;0.30;0.30;;;22.20;37.70;;;;;;5035155;28;20459;-71
2022/02/09 11:06:30;;;;;;;0.30;0.30;;;21.90;38.20;;;;;;5035004;28;20440;-70
2022/02/09 11:08:56;;;;;;;0.30;0.30;;;21.60;37.90;;;;;;5033718;28;20432;-70
2022/02/09 11:11:22;;;;;;;0.30;0.30;;;21.30;38.00;;;;;;5034973;28;20434;-71
2022/02/09 11:13:49;;;;;;;0.30;0.30;;;20.80;38.90;;;;;;5035043;28;20454;-70
2022/02/09 11:16:17;;;;;;;0.30;0.30;;;20.40;38.00;;;;;;5034666;28;20435;-70
2022/02/09 11:18:47;;;;;;;0.30;0.30;;;19.90;38.60;;;;;;5034688;28;20410;-70
2022/02/09 11:21:14;;;;;;;0.30;0.30;;;19.40;39.40;;;;;;5034939;28;20895;-71
2022/02/09 11:23:54;;;;;;;0.30;0.30;;;18.90;41.60;;;;;;5035036;28;20512;-69
2022/02/09 11:29:33;;;;;;;0.30;0.30;;;17.70;42.20;;;;;;5034534;28;20463;-69
2022/02/09 11:34:52;;;;;;;0.40;0.40;;;16.10;44.90;;;;;;5034369;28;20435;-69
2022/02/09 11:39:55;;;;;;;0.30;0.30;;;15.70;43.90;;;;;;5034260;28;20471;-69
2022/02/09 11:42:52;;;;;;;0.40;0.40;;;15.30;43.80;;;;;;5032677;28;20401;-70
2022/02/09 11:45:55;;;;;;;0.40;0.40;;;15.20;44.90;;;;;;5033425;28;20425;-71
2022/02/09 12:10:58;;;;;;;0.40;0.40;;;14.40;44.90;;;;;;5034363;28;20403;-70
2022/02/09 12:16:44;;;;;;;0.30;0.30;;;13.30;47.00;;;;;;5033318;28;20440;-71
2022/02/09 12:19:23;;;;;;;0.30;0.30;;;12.90;47.20;;;;;;5033762;28;20398;-71
2022/02/09 12:24:32;;;;;;;0.30;0.30;;;13.10;45.80;;;;;;5033569;28;20857;-70
2022/02/09 12:27:00;;;;;;;0.30;0.30;;;13.20;46.40;;;;;;5033471;28;20433;-70
2022/02/09 12:29:34;;;;;;;0.30;0.30;;;13.50;47.40;;;;;;5033409;28;20408;-70
2022/02/09 12:32:23;;;;;;;0.30;0.30;;;13.70;45.10;;;;;;5033613;28;20444;-70
2022/02/09 12:35:05;;;;;;;0.30;0.30;;;13.80;46.00;;;;;;5033583;28;20471;-71
2022/02/09 12:37:43;;;;;;;0.40;0.40;;;13.70;46.30;;;;;;5033938;28;20384;-70
2022/02/09 12:40:13;;;;;;;0.40;0.40;;;13.60;45.80;;;;;;5033527;28;20438;-70
2022/02/09 12:42:48;;;;;;;0.30;0.30;;;13.00;46.80;;;;;;5033548;28;20957;-70
2022/02/09 12:45:16;;;;;;;0.30;0.30;;;12.60;48.90;;;;;;5033329;28;20428;-70
2022/02/09 12:47:46;;;;;;;0.40;0.40;;;12.20;49.30;;;;;;5033316;28;20408;-70
2022/02/09 12:50:15;;;;;;;0.40;0.40;;;12.20;48.90;;;;;;5033408;28;20413;-70
2022/02/09 12:52:43;;;;;;;0.30;0.30;;;12.20;49.40;;;;;;5033558;28;20414;-70
2022/02/09 12:55:15;;;;;;;0.40;0.40;;;12.10;48.90;;;;;;5033387;28;20884;-70
2022/02/09 12:57:53;;;;;;;0.40;0.40;;;12.10;47.70;;;;;;5033774;28;20202;-70
2022/02/09 13:00:24;;;;;;;0.50;0.50;;;11.90;49.20;;;;;;5033303;28;20938;-70
2022/02/09 13:02:51;;;;;;;0.30;0.30;;;11.80;48.50;;;;;;5033312;28;20459;-70
2022/02/09 13:05:16;;;;;;;0.30;0.30;;;11.80;48.40;;;;;;5033238;28;20194;-70
2022/02/09 13:07:57;;;;;;;0.30;0.30;;;11.60;48.70;;;;;;5033634;28;20167;-70
2022/02/09 13:10:34;;;;;;;0.30;0.30;;;11.40;49.10;;;;;;5033062;28;20280;-70
2022/02/09 13:13:08;;;;;;;0.30;0.30;;;11.20;50.10;;;;;;5033461;28;20542;-70
2022/02/09 13:15:44;;;;;;;0.30;0.30;;;11.00;49.80;;;;;;5033291;28;20563;-69
2022/02/09 13:24:07;;;;;;;0.40;0.40;;;10.20;51.20;;;;;;5013629;28;20214;-70
2022/02/09 14:07:01;;;;;;;0.30;0.30;;;9.40;53.30;;;;;;5036291;28;20236;-76
2022/02/09 14:52:43;;;;;;;0.30;0.30;;;8.70;53.60;;;;;;5033729;28;20181;-70
2022/02/09 14:57:43;;;;;;;0.40;0.40;;;8.60;54.40;;;;;;5035308;28;20186;-70
2022/02/09 15:00:14;;;;;;;0.30;0.30;;;8.50;55.30;;;;;;5033872;28;20224;-72
2022/02/09 15:07:46;;;;;;;0.30;0.30;;;8.40;55.40;;;;;;5035786;28;20173;-77
2022/02/09 15:13:05;;;;;;;0.35;0.35;;;8.40;53.50;;;;;;5035232;28;20170;-74
2022/02/09 15:23:23;;;;;;;0.40;0.40;;;8.30;54.40;;;;;;5033915;28;20217;-69
2022/02/09 15:25:49;;;;;;;0.30;0.30;;;8.40;54.00;;;;;;5034638;28;20195;-71
2022/02/09 15:28:15;;;;;;;0.30;0.30;;;8.30;55.00;;;;;;5034546;28;20170;-70
2022/02/09 15:30:54;;;;;;;0.30;0.30;;;8.30;55.30;;;;;;5034549;28;20531;-70
2022/02/09 15:33:25;;;;;;;0.40;0.40;;;8.30;56.00;;;;;;5034505;28;20493;-69
2022/02/09 15:35:56;;;;;;;0.40;0.40;;;8.20;56.10;;;;;;5034997;28;20295;-70
2022/02/09 15:38:27;;;;;;;0.40;0.40;;;8.20;55.30;;;;;;5034286;28;20179;-69
2022/02/09 15:57:03;;;;;;;0.40;0.40;;;8.10;56.70;;;;;;5034139;28;20322;-70
2022/02/09 16:05:36;;;;;;;0.30;0.30;;;8.10;56.70;;;;;;5034091;28;20255;-70
2022/02/09 16:24:02;;;;;;;0.40;0.40;;;7.00;59.40;;;;;;5033861;28;20222;-74
2022/02/09 16:45:25;;;;;;;0.40;0.40;;;6.30;63.60;;;;;;5033395;28;20226;-70
2022/02/09 16:50:27;;;;;;;0.40;0.40;;;6.10;63.90;;;;;;5033435;28;20172;-70
2022/02/09 16:53:07;;;;;;;0.40;0.40;;;6.10;64.40;;;;;;5033631;28;20254;-70
2022/02/09 17:19:41;;;;;;;0.30;0.30;;;5.40;72.40;;;;;;5032396;28;20189;-70
2022/02/09 17:22:08;;;;;;;0.40;0.40;;;5.30;74.30;;;;;;5033106;28;20222;-70
2022/02/09 17:24:35;;;;;;;0.40;0.40;;;5.10;81.70;;;;;;5033401;28;20586;-70
2022/02/09 17:27:01;;;;;;;0.40;0.40;;;5.10;76.60;;;;;;5036898;28;20325;-70
2022/02/09 17:32:24;;;;;;;0.40;0.40;;;5.00;79.40;;;;;;5013945;28;20175;-70
2022/02/09 17:35:01;;;;;;;0.40;0.40;;;5.00;80.20;;;;;;5034970;28;20198;-70
2022/02/09 17:53:34;;;;;;;0.40;0.40;;;4.70;86.50;;;;;;5036959;28;20532;-70
2022/02/09 17:56:15;;;;;;;0.40;0.40;;;4.60;87.50;;;;;;5035053;28;20217;-69
2022/02/09 17:58:49;;;;;;;0.38;0.38;;;4.60;88.60;;;;;;5036555;28;20174;-72
2022/02/09 18:01:17;;;;;;;0.40;0.40;;;4.50;89.00;;;;;;5034108;28;20595;-74
2022/02/09 18:03:43;;;;;;;0.40;0.40;;;4.50;89.00;;;;;;5036602;28;20212;-73
2022/02/09 18:06:20;;;;;;;0.40;0.40;;;4.50;89.70;;;;;;5035221;28;20696;-73
2022/02/09 18:25:08;;;;;;;0.37;0.37;;;4.40;90.50;;;;;;5036290;28;20954;-73
2022/02/09 18:29:50;;;;;;;0.40;0.40;;;4.10;92.20;;;;;;5036197;28;20210;-74
2022/02/09 18:38:06;;;;;;;0.40;0.40;;;4.00;92.60;;;;;;5035957;28;20248;-70
2022/02/09 18:46:19;;;;;;;0.40;0.40;;;3.80;93.60;;;;;;5033397;28;20277;-73
2022/02/09 19:02:33;;;;;;;0.30;0.30;;;3.50;94.20;;;;;;5035450;28;20165;-70
2022/02/09 19:26:50;;;;;;;0.40;0.40;;;3.30;95.30;;;;;;5034667;28;20247;-70
2022/02/09 19:31:45;;;;;;;0.40;0.40;;;3.20;95.20;;;;;;5034806;28;20510;-70
2022/02/09 19:48:04;;;;;;;0.40;0.40;;;3.10;95.80;;;;;;5033739;28;20580;-70
2022/02/09 19:50:54;;;;;;;0.30;0.30;;;3.10;95.80;;;;;;5034210;28;20169;-70
2022/02/09 19:55:59;;;;;;;0.40;0.40;;;3.10;96.00;;;;;;5034314;28;20709;-70
2022/02/09 19:58:38;;;;;;;0.30;0.30;;;3.00;96.00;;;;;;5033837;28;20175;-70
2022/02/09 20:01:04;;;;;;;0.30;0.30;;;3.00;96.10;;;;;;5034365;28;20274;-70
2022/02/09 20:03:30;;;;;;;0.40;0.40;;;2.90;96.20;;;;;;5034055;28;20296;-70
2022/02/09 20:05:55;;;;;;;0.40;0.40;;;2.90;96.40;;;;;;5034180;28;20274;-70
2022/02/09 20:08:21;;;;;;;0.33;0.33;;;2.90;96.50;;;;;;5033759;28;20255;-70
2022/02/09 20:10:46;;;;;;;0.30;0.30;;;2.90;96.60;;;;;;5034175;28;20208;-70
2022/02/09 20:13:12;;;;;;;0.30;0.30;;;2.90;96.80;;;;;;5034191;28;20175;-70
2022/02/09 20:15:38;;;;;;;0.30;0.30;;;2.90;96.90;;;;;;5033926;28;20192;-70
2022/02/09 20:18:03;;;;;;;0.30;0.30;;;2.80;97.30;;;;;;5034016;28;20182;-70
2022/02/09 20:20:32;;;;;;;0.30;0.30;;;2.80;96.90;;;;;;5033802;28;20204;-70
2022/02/09 20:22:59;;;;;;;0.30;0.30;;;2.80;97.00;;;;;;5033776;28;20174;-70
2022/02/09 20:25:26;;;;;;;0.35;0.35;;;2.80;97.00;;;;;;5032390;28;20307;-70
2022/02/09 20:27:54;;;;;;;0.40;0.40;;;2.80;97.10;;;;;;5033832;28;20169;-70
2022/02/09 20:30:23;;;;;;;0.30;0.30;;;2.80;97.10;;;;;;5033462;28;20173;-70
2022/02/09 20:32:54;;;;;;;0.30;0.30;;;2.80;97.10;;;;;;5032217;28;20189;-70
2022/02/09 20:35:20;;;;;;;0.30;0.30;;;2.70;97.10;;;;;;5033663;28;20287;-70
2022/02/09 20:37:50;;;;;;;0.30;0.30;;;2.70;97.20;;;;;;5034006;28;20173;-70
2022/02/09 20:40:25;;;;;;;0.30;0.30;;;2.70;97.30;;;;;;5032103;28;20176;-70
2022/02/09 20:43:00;;;;;;;0.30;0.30;;;2.70;97.20;;;;;;5033747;28;20548;-70
2022/02/09 20:45:35;;;;;;;0.32;0.32;;;2.70;97.40;;;;;;5033519;28;20189;-70
2022/02/09 20:48:06;;;;;;;0.30;0.30;;;2.60;97.40;;;;;;5033411;28;20163;-70
2022/02/09 20:50:34;;;;;;;0.30;0.30;;;2.60;97.50;;;;;;5033335;28;20180;-70
2022/02/09 20:53:00;;;;;;;0.30;0.30;;;2.60;97.70;;;;;;5033597;28;20226;-70
2022/02/09 20:55:27;;;;;;;0.30;0.30;;;2.60;97.90;;;;;;5033388;28;20268;-70
2022/02/09 20:57:53;;;;;;;0.30;0.30;;;2.70;98.00;;;;;;5033311;28;20701;-70
2022/02/09 21:08:01;;;;;;;0.30;0.30;;;2.80;98.00;;;;;;5037590;28;20262;-70
2022/02/09 21:10:58;;;;;;;0.30;0.30;;;2.70;97.80;;;;;;5037177;28;20172;-70
2022/02/09 21:14:05;;;;;;;0.30;0.30;;;2.70;97.90;;;;;;5036866;28;20216;-70
2022/02/09 21:19:22;;;;;;;0.30;0.30;;;2.80;98.00;;;;;;4995520;28;20190;-70
2022/02/09 21:56:51;;;;;;;0.30;0.30;;;2.60;98.20;;;;;;5036611;28;20210;-70
2022/02/09 21:59:40;;;;;;;0.40;0.40;;;2.50;98.10;;;;;;5036327;28;20168;-70
2022/02/09 22:21:42;;;;;;;0.30;0.30;;;2.30;98.40;;;;;;5036106;28;20182;-70
2022/02/09 22:31:54;;;;;;;0.30;0.30;;;2.40;98.60;;;;;;5035792;28;20168;-70
2022/02/09 22:34:49;;;;;;;0.30;0.30;;;2.40;98.50;;;;;;5035625;28;20186;-70
2022/02/09 22:50:46;;;;;;;0.30;0.30;;;2.20;98.20;;;;;;5035916;28;20223;-70
2022/02/09 22:55:56;;;;;;;0.30;0.30;;;2.20;98.50;;;;;;5035477;28;20223;-70
2022/02/09 22:58:22;;;;;;;0.30;0.30;;;2.20;98.50;;;;;;5035318;28;20212;-70
2022/02/09 23:11:46;;;;;;;0.40;0.40;;;2.20;98.60;;;;;;5035342;28;20183;-70
2022/02/09 23:14:37;;;;;;;0.40;0.40;;;2.20;98.70;;;;;;5034876;28;20259;-70
